AirNav   TITAN Aviation Fuels
 
 428 users online  

1Q4 New Jerusalem Airport
Tracy, California, USA

GOING TO TRACY?


FAA INFORMATION EFFECTIVE 22 APRIL 2021

Location

FAA Identifier: 1Q4
Lat/Long: 37-40-40.0000N 121-18-04.3000W
37-40.666667N 121-18.071667W
37.6777778,-121.3011944
(estimated)
Elevation: 62 ft. / 19 m (estimated)
Variation: 16E (1985)
From city: 7 miles SE of TRACY, CA
Time zone: UTC -7 (UTC -8 during Standard Time)
Zip code: 95376

Airport Operations

Airport use: Open to the public
Activation date: 07/1944
Control tower: no
ARTCC: OAKLAND CENTER
FSS: RANCHO MURIETA FLIGHT SERVICE STATION
NOTAMs facility: RIU (NOTAM-D service available)
Attendance: UNATNDD
Pattern altitude: 862 ft. MSL
Wind indicator: yes
Segmented circle: no

Airport Communications

CTAF: 122.9
WX AWOS-3 at TCY (7 nm W): 118.375 (209-831-4335)
WX ASOS at SCK (13 nm N): PHONE 209-982-4270
WX ASOS at MOD (17 nm E): 127.7 (209-572-0914)
WX AWOS-3 at C83 (18 nm NW): 123.775 (925-634-0906)

Nearby radio navigation aids

VOR radial/distance  VOR name  Freq  Var
MODr264/16.6MODESTO VOR/DME114.6017E
LINr194/27.7LINDEN VOR/DME114.8017E
SJCr043/35.6SAN JOSE VOR/DME114.1016E

Airport Services

Airframe service: NONE
Powerplant service: NONE
Bottled oxygen: NONE
Bulk oxygen: NONE

Runway Information

Runway 12/30

Dimensions: 3530 x 60 ft. / 1076 x 18 m
PAVED RUNWAY SAFETY AREA RY 12/30.
Surface: asphalt, in fair condition
Weight bearing capacity: 
Single wheel: GROSS PAVEMENT STRENGTH PRVDD BY AIRPORT MANAGEMENT. 12500 LBS.
RUNWAY 12  RUNWAY 30
Latitude: 37-40.887333N37-40.446333N
Longitude: 121-18.310167W121-17.832667W
Elevation: 56.0 ft.61.0 ft.
Traffic pattern: leftleft
Markings: basic, in good conditionbasic, in good condition
Runway end identifier lights: nono

Airport Ownership and Management from official FAA records

Ownership: Publicly-owned
Owner: CITY OF TRACY
333 CIVIC CENTER PLAZA
TRACY, CA 95376-4062
Phone (209) 831-6215
Manager: PAULA JESSUP
5749 SOUTH TRACY BLVD
TRACY, CA 95376-4168
Phone (209) 831-6215
CITY OF TRACY DEPT OF PARKS AND REC.

Airport Operational Statistics

Aircraft operations: avg 77/week *
100% transient general aviation
* for 12-month period ending 13 February 2020

Additional Remarks

MODEL AIRCRAFT ACTIVITY ON AND INVOF ABANDONED RY.
AEROBATIC ACTIVITY NORTH NORTHEAST OF AIRPORT AND OVER ABANDONED PARALLEL RY 12/30 FM SURFACE TO 4,000 FEET MSL.
NIGHT OPERATIONS PROHIBITED.
PARALLEL TWY ROUGH/UNEVEN SFC FM EXTSV ASPHALT RPR AND PATCHING.
FOR CD CTC NORCAL APCH AT 916-361-0516.
STANDING WATER ON PARL TWY AFTER RAIN.

Instrument Procedures

There are no published instrument procedures at 1Q4.

Some nearby airports with instrument procedures:

KTCY - Tracy Municipal Airport (7 nm W)
KSCK - Stockton Metro Airport (13 nm N)
KMOD - Modesto City-County Airport-Harry Sham Field (17 nm E)
C83 - Byron Airport (18 nm NW)
O27 - Oakdale Airport (24 nm E)
 
Loc | Ops | Rwys | IFR | FBO | Links
Com | Nav | Svcs | Stats | Notes
Area around 1Q4 (New Jerusalem Airport)
 
Road maps at: MapQuest Bing Google
 
Aerial photo
WARNING: Photo may not be current or correct
Aerial photo of 1Q4 (New Jerusalem Airport)
Photo taken 08-Jul-2006

Do you have a better or more recent aerial photo of New Jerusalem Airport that you would like to share? If so, please send us your photo.

 
Sectional chart

 
Airport distance calculator
Flying to New Jerusalem Airport? Find the distance to fly.

From to 1Q4

Sunrise and sunset
Times for 08-May-2021
 Local
(UTC-7)
 Zulu
(UTC)
Morning civil twilight05:3412:34
Sunrise06:0313:03
Sunset20:0003:00
Evening civil twilight20:2903:29

Current date and time
Zulu (UTC)  09-May-2021 06:49:34
Local (UTC-7)  08-May-2021 23:49:34
 
METAR
KTCY 
7nm W 
090635Z AUTO 28005KT 10SM CLR 23/M00 A2992 RMK A01
KSCK 
13nm N 
090555Z AUTO 26006KT 10SM CLR 19/04 A2992 RMK AO2 SLP130 T01940044 10300 20183 50004
KMOD 
17nm E 
090553Z AUTO 30010KT 10SM CLR 22/02 A2990 RMK AO2 SLP124 T02220022 10300 20222 50003
KC83 
18nm NW 
090635Z AUTO 27009KT 10SM CLR 21/00 A2992 RMK AO2
TAF
KSCK 
13nm N 
090526Z 0906/1006 28007KT P6SM SKC FM091800 31010G17KT P6SM SKC
KMOD 
17nm E 
090526Z 0906/1006 30010KT P6SM SKC FM091800 31010G16KT P6SM SKC
NOTAMs
Click for the latest NOTAMs
NOTAMs are issued by the DoD/FAA and will open in a separate window not controlled by AirNav.

 

 
 

Would you like to see your business listed on this page?

 If your business provides an interesting product or service to pilots, flight crews, aircraft, or users of the New Jerusalem Airport, you should consider listing it here.  To start the listing process, click on the button below
 
Add a business
 

Other Pages about New Jerusalem Airport

Update a link
 
Copyright © AirNav, LLC. All rights reserved. Privacy Policy  Contact